sensor_id;sensor_type;location;lat;lon;timestamp;pressure;altitude;pressure_sealevel;temperature;humidity
35778;BME280;21899;42.662;23.316;2023-03-13T00:01:45;94630.78;;;1.17;61.89
35778;BME280;21899;42.662;23.316;2023-03-13T00:04:11;94638.84;;;1.20;61.52
35778;BME280;21899;42.662;23.316;2023-03-13T00:06:38;94634.06;;;1.14;61.61
35778;BME280;21899;42.662;23.316;2023-03-13T00:09:09;94633.44;;;1.17;62.06
35778;BME280;21899;42.662;23.316;2023-03-13T00:11:35;94627.69;;;1.15;61.51
35778;BME280;21899;42.662;23.316;2023-03-13T00:14:02;94623.53;;;1.14;61.35
35778;BME280;21899;42.662;23.316;2023-03-13T00:16:28;94630.19;;;1.11;61.10
35778;BME280;21899;42.662;23.316;2023-03-13T00:18:55;94626.34;;;1.09;61.22
35778;BME280;21899;42.662;23.316;2023-03-13T00:21:22;94632.22;;;1.06;61.64
35778;BME280;21899;42.662;23.316;2023-03-13T00:23:48;94638.44;;;1.10;61.60
35778;BME280;21899;42.662;23.316;2023-03-13T00:26:16;94634.75;;;1.02;61.63
35778;BME280;21899;42.662;23.316;2023-03-13T00:28:42;94650.25;;;1.04;61.54
35778;BME280;21899;42.662;23.316;2023-03-13T00:33:44;94631.84;;;0.95;61.84
35778;BME280;21899;42.662;23.316;2023-03-13T00:36:12;94643.59;;;0.98;62.15
35778;BME280;21899;42.662;23.316;2023-03-13T00:38:38;94641.59;;;0.95;61.90
35778;BME280;21899;42.662;23.316;2023-03-13T00:41:09;94641.31;;;0.88;61.96
35778;BME280;21899;42.662;23.316;2023-03-13T00:43:38;94639.91;;;0.90;61.78
35778;BME280;21899;42.662;23.316;2023-03-13T00:46:04;94650.91;;;0.92;62.06
35778;BME280;21899;42.662;23.316;2023-03-13T00:48:30;94651.09;;;0.87;62.28
35778;BME280;21899;42.662;23.316;2023-03-13T00:50:57;94640.56;;;0.87;62.29
35778;BME280;21899;42.662;23.316;2023-03-13T00:53:22;94623.38;;;0.81;61.95
35778;BME280;21899;42.662;23.316;2023-03-13T00:55:55;94642.41;;;0.87;62.45
35778;BME280;21899;42.662;23.316;2023-03-13T00:58:21;94637.78;;;0.84;62.38
35778;BME280;21899;42.662;23.316;2023-03-13T01:00:47;94643.63;;;0.89;61.92
35778;BME280;21899;42.662;23.316;2023-03-13T01:03:12;94632.03;;;0.82;62.02
35778;BME280;21899;42.662;23.316;2023-03-13T01:05:38;94638.25;;;0.86;62.15
35778;BME280;21899;42.662;23.316;2023-03-13T01:08:03;94639.78;;;0.87;62.04
35778;BME280;21899;42.662;23.316;2023-03-13T01:10:29;94640.56;;;0.87;62.32
35778;BME280;21899;42.662;23.316;2023-03-13T01:12:54;94625.25;;;0.81;61.85
35778;BME280;21899;42.662;23.316;2023-03-13T01:15:19;94624.47;;;0.80;61.84
35778;BME280;21899;42.662;23.316;2023-03-13T01:17:45;94635.19;;;0.75;62.25
35778;BME280;21899;42.662;23.316;2023-03-13T01:20:11;94620.31;;;0.71;62.11
35778;BME280;21899;42.662;23.316;2023-03-13T01:22:36;94629.13;;;0.75;61.33
35778;BME280;21899;42.662;23.316;2023-03-13T01:25:02;94631.75;;;0.75;61.81
35778;BME280;21899;42.662;23.316;2023-03-13T01:27:28;94643.25;;;0.70;61.77
35778;BME280;21899;42.662;23.316;2023-03-13T01:29:54;94642.47;;;0.70;62.11
35778;BME280;21899;42.662;23.316;2023-03-13T01:32:19;94648.53;;;0.62;61.80
35778;BME280;21899;42.662;23.316;2023-03-13T01:34:44;94651.31;;;0.65;62.63
35778;BME280;21899;42.662;23.316;2023-03-13T01:37:10;94649.00;;;0.64;62.78
35778;BME280;21899;42.662;23.316;2023-03-13T01:39:35;94653.97;;;0.65;63.21
35778;BME280;21899;42.662;23.316;2023-03-13T01:42:04;94656.75;;;0.69;63.26
35778;BME280;21899;42.662;23.316;2023-03-13T01:44:51;94663.22;;;0.71;63.55
35778;BME280;21899;42.662;23.316;2023-03-13T01:47:17;94667.59;;;0.67;63.47
35778;BME280;21899;42.662;23.316;2023-03-13T01:49:42;94649.38;;;0.45;64.57
35778;BME280;21899;42.662;23.316;2023-03-13T01:52:12;94660.97;;;0.53;65.43
35778;BME280;21899;42.662;23.316;2023-03-13T01:54:43;94657.72;;;0.56;64.95
35778;BME280;21899;42.662;23.316;2023-03-13T01:59:47;94660.50;;;0.51;65.35
35778;BME280;21899;42.662;23.316;2023-03-13T02:02:15;94657.25;;;0.45;65.94
35778;BME280;21899;42.662;23.316;2023-03-13T02:04:44;94660.53;;;0.42;65.75
35778;BME280;21899;42.662;23.316;2023-03-13T02:07:15;94663.78;;;0.48;66.04
35778;BME280;21899;42.662;23.316;2023-03-13T02:09:42;94657.13;;;0.42;65.70
35778;BME280;21899;42.662;23.316;2023-03-13T02:12:15;94660.22;;;0.44;65.95
35778;BME280;21899;42.662;23.316;2023-03-13T02:14:44;94653.44;;;0.34;66.32
35778;BME280;21899;42.662;23.316;2023-03-13T02:17:12;94667.97;;;0.40;66.72
35778;BME280;21899;42.662;23.316;2023-03-13T02:19:45;94659.47;;;0.35;67.20
35778;BME280;21899;42.662;23.316;2023-03-13T02:27:57;94679.91;;;0.29;67.24
35778;BME280;21899;42.662;23.316;2023-03-13T02:30:25;94682.69;;;0.33;66.50
35778;BME280;21899;42.662;23.316;2023-03-13T02:32:51;94677.13;;;0.26;66.94
35778;BME280;21899;42.662;23.316;2023-03-13T02:35:19;94685.81;;;0.35;67.11
35778;BME280;21899;42.662;23.316;2023-03-13T02:37:48;94694.13;;;0.37;66.45
35778;BME280;21899;42.662;23.316;2023-03-13T02:40:19;94700.97;;;0.38;66.53
35778;BME280;21899;42.662;23.316;2023-03-13T02:42:47;94704.66;;;0.37;66.78
35778;BME280;21899;42.662;23.316;2023-03-13T02:45:15;94704.66;;;0.37;67.00
35778;BME280;21899;42.662;23.316;2023-03-13T02:47:40;94716.47;;;0.31;66.79
35778;BME280;21899;42.662;23.316;2023-03-13T02:50:06;94720.47;;;0.37;67.48
35778;BME280;21899;42.662;23.316;2023-03-13T02:55:12;94728.38;;;0.28;67.87
35778;BME280;21899;42.662;23.316;2023-03-13T02:57:38;94727.78;;;0.31;68.82
35778;BME280;21899;42.662;23.316;2023-03-13T03:00:06;94722.50;;;0.23;68.68
35778;BME280;21899;42.662;23.316;2023-03-13T03:02:31;94723.44;;;0.18;68.49
35778;BME280;21899;42.662;23.316;2023-03-13T03:04:57;94714.91;;;0.13;69.08
35778;BME280;21899;42.662;23.316;2023-03-13T03:07:23;94724.97;;;0.19;69.56
35778;BME280;21899;42.662;23.316;2023-03-13T03:09:48;94725.75;;;0.20;69.69
35778;BME280;21899;42.662;23.316;2023-03-13T03:12:13;94718.78;;;0.15;69.60
35778;BME280;21899;42.662;23.316;2023-03-13T03:14:39;94718.34;;;0.13;70.40
35778;BME280;21899;42.662;23.316;2023-03-13T03:17:04;94723.59;;;0.05;70.54
35778;BME280;21899;42.662;23.316;2023-03-13T03:19:30;94734.13;;;0.13;71.16
35778;BME280;21899;42.662;23.316;2023-03-13T03:21:55;94735.03;;;0.09;71.60
35778;BME280;21899;42.662;23.316;2023-03-13T03:24:21;94747.13;;;0.10;71.98
35778;BME280;21899;42.662;23.316;2023-03-13T03:26:46;94754.38;;;-0.05;71.95
35778;BME280;21899;42.662;23.316;2023-03-13T03:29:11;94764.56;;;-0.12;72.85
35778;BME280;21899;42.662;23.316;2023-03-13T03:31:37;94762.28;;;-0.22;73.76
35778;BME280;21899;42.662;23.316;2023-03-13T03:34:02;94768.44;;;-0.18;74.68
35778;BME280;21899;42.662;23.316;2023-03-13T03:36:28;94768.28;;;-0.21;75.25
35778;BME280;21899;42.662;23.316;2023-03-13T03:38:53;94758.06;;;-0.31;76.50
35778;BME280;21899;42.662;23.316;2023-03-13T03:41:19;94760.53;;;-0.43;77.54
35778;BME280;21899;42.662;23.316;2023-03-13T03:43:45;94766.22;;;-0.50;78.25
35778;BME280;21899;42.662;23.316;2023-03-13T03:46:11;94793.28;;;-0.49;79.00
35778;BME280;21899;42.662;23.316;2023-03-13T03:48:37;94794.34;;;-0.59;79.59
35778;BME280;21899;42.662;23.316;2023-03-13T03:51:03;94791.50;;;-0.71;80.88
35778;BME280;21899;42.662;23.316;2023-03-13T03:53:28;94802.63;;;-0.74;81.60
35778;BME280;21899;42.662;23.316;2023-03-13T03:55:55;94802.25;;;-0.81;82.95
35778;BME280;21899;42.662;23.316;2023-03-13T03:58:20;94791.44;;;-0.88;83.55
35778;BME280;21899;42.662;23.316;2023-03-13T04:00:46;94799.63;;;-0.89;83.39
35778;BME280;21899;42.662;23.316;2023-03-13T04:03:12;94807.78;;;-0.91;84.23
35778;BME280;21899;42.662;23.316;2023-03-13T04:05:38;94805.44;;;-1.01;84.37
35778;BME280;21899;42.662;23.316;2023-03-13T04:08:04;94809.59;;;-1.00;84.94
35778;BME280;21899;42.662;23.316;2023-03-13T04:10:30;94810.22;;;-1.03;85.05
35778;BME280;21899;42.662;23.316;2023-03-13T04:12:55;94820.53;;;-1.06;85.38
35778;BME280;21899;42.662;23.316;2023-03-13T04:15:21;94829.78;;;-1.09;86.18
35778;BME280;21899;42.662;23.316;2023-03-13T04:17:46;94823.78;;;-1.09;86.13
35778;BME280;21899;42.662;23.316;2023-03-13T04:20:11;94816.50;;;-1.12;86.39
35778;BME280;21899;42.662;23.316;2023-03-13T04:22:39;94831.84;;;-1.06;86.23
35778;BME280;21899;42.662;23.316;2023-03-13T04:25:05;94838.75;;;-1.10;86.39
35778;BME280;21899;42.662;23.316;2023-03-13T04:27:32;94845.22;;;-1.16;87.50
35778;BME280;21899;42.662;23.316;2023-03-13T04:29:57;94841.97;;;-1.13;86.84
35778;BME280;21899;42.662;23.316;2023-03-13T04:32:23;94845.09;;;-1.11;87.11
35778;BME280;21899;42.662;23.316;2023-03-13T04:34:48;94844.34;;;-1.03;87.00
35778;BME280;21899;42.662;23.316;2023-03-13T04:37:14;94856.28;;;-0.97;86.89
35778;BME280;21899;42.662;23.316;2023-03-13T04:39:39;94846.94;;;-1.11;87.17
35778;BME280;21899;42.662;23.316;2023-03-13T04:42:04;94867.81;;;-1.06;86.49
35778;BME280;21899;42.662;23.316;2023-03-13T04:44:30;94875.03;;;-1.12;87.07
35778;BME280;21899;42.662;23.316;2023-03-13T04:46:55;94858.34;;;-1.16;87.19
35778;BME280;21899;42.662;23.316;2023-03-13T04:49:21;94871.25;;;-0.97;85.97
35778;BME280;21899;42.662;23.316;2023-03-13T04:51:46;94879.19;;;-0.89;86.54
35778;BME280;21899;42.662;23.316;2023-03-13T04:54:12;94860.63;;;-0.92;86.81
35778;BME280;21899;42.662;23.316;2023-03-13T04:56:38;94864.69;;;-0.86;87.06
35778;BME280;21899;42.662;23.316;2023-03-13T04:59:03;94876.03;;;-0.77;86.66
35778;BME280;21899;42.662;23.316;2023-03-13T05:01:29;94877.78;;;-0.73;86.87
35778;BME280;21899;42.662;23.316;2023-03-13T05:03:54;94880.84;;;-0.71;86.94
35778;BME280;21899;42.662;23.316;2023-03-13T05:06:20;94880.44;;;-0.64;86.31
35778;BME280;21899;42.662;23.316;2023-03-13T05:08:45;94874.59;;;-0.61;86.06
35778;BME280;21899;42.662;23.316;2023-03-13T05:11:11;94879.41;;;-0.55;84.89
35778;BME280;21899;42.662;23.316;2023-03-13T05:13:36;94880.34;;;-0.51;84.97
35778;BME280;21899;42.662;23.316;2023-03-13T05:16:02;94893.97;;;-0.49;84.43
35778;BME280;21899;42.662;23.316;2023-03-13T05:18:28;94877.09;;;-0.56;84.87
35778;BME280;21899;42.662;23.316;2023-03-13T05:20:53;94893.34;;;-0.46;84.67
35778;BME280;21899;42.662;23.316;2023-03-13T05:23:19;94902.22;;;-0.42;84.05
35778;BME280;21899;42.662;23.316;2023-03-13T05:25:44;94902.16;;;-0.50;82.47
35778;BME280;21899;42.662;23.316;2023-03-13T05:28:10;94907.41;;;-0.50;82.04
35778;BME280;21899;42.662;23.316;2023-03-13T05:30:35;94909.91;;;-0.45;81.85
35778;BME280;21899;42.662;23.316;2023-03-13T05:33:01;94913.66;;;-0.38;81.31
35778;BME280;21899;42.662;23.316;2023-03-13T05:35:27;94906.72;;;-0.34;81.32
35778;BME280;21899;42.662;23.316;2023-03-13T05:37:53;94905.69;;;-0.24;80.93
35778;BME280;21899;42.662;23.316;2023-03-13T05:40:18;94910.84;;;-0.11;79.83
35778;BME280;21899;42.662;23.316;2023-03-13T05:42:44;94905.13;;;-0.04;79.59
35778;BME280;21899;42.662;23.316;2023-03-13T05:45:10;94917.09;;;0.11;79.24
35778;BME280;21899;42.662;23.316;2023-03-13T05:47:36;94912.34;;;0.21;79.57
35778;BME280;21899;42.662;23.316;2023-03-13T05:50:04;94914.38;;;0.33;79.77
35778;BME280;21899;42.662;23.316;2023-03-13T05:52:29;94913.63;;;0.41;79.26
35778;BME280;21899;42.662;23.316;2023-03-13T05:54:55;94931.13;;;0.45;78.53
35778;BME280;21899;42.662;23.316;2023-03-13T05:57:20;94932.53;;;0.51;77.95
35778;BME280;21899;42.662;23.316;2023-03-13T05:59:46;94934.56;;;0.71;76.89
35778;BME280;21899;42.662;23.316;2023-03-13T06:02:11;94933.34;;;0.86;74.88
35778;BME280;21899;42.662;23.316;2023-03-13T06:04:36;94928.69;;;0.83;72.70
35778;BME280;21899;42.662;23.316;2023-03-13T06:07:02;94938.75;;;0.98;71.89
35778;BME280;21899;42.662;23.316;2023-03-13T06:09:27;94937.38;;;1.09;72.50
35778;BME280;21899;42.662;23.316;2023-03-13T06:11:53;94936.59;;;1.08;70.82
35778;BME280;21899;42.662;23.316;2023-03-13T06:14:19;94937.06;;;1.19;70.80
35778;BME280;21899;42.662;23.316;2023-03-13T06:16:45;94927.91;;;1.33;70.63
35778;BME280;21899;42.662;23.316;2023-03-13T06:19:10;94932.06;;;1.43;66.76
35778;BME280;21899;42.662;23.316;2023-03-13T06:21:36;94933.16;;;1.42;65.61
35778;BME280;21899;42.662;23.316;2023-03-13T06:24:01;94939.97;;;1.43;65.61
35778;BME280;21899;42.662;23.316;2023-03-13T06:26:27;94931.59;;;1.41;65.47
35778;BME280;21899;42.662;23.316;2023-03-13T06:28:52;94924.31;;;1.47;66.10
35778;BME280;21899;42.662;23.316;2023-03-13T06:31:17;94945.41;;;1.55;65.11
35778;BME280;21899;42.662;23.316;2023-03-13T06:33:43;94944.75;;;1.58;65.57
35778;BME280;21899;42.662;23.316;2023-03-13T06:36:08;94929.34;;;1.69;65.00
35778;BME280;21899;42.662;23.316;2023-03-13T06:38:34;94905.78;;;1.64;63.15
35778;BME280;21899;42.662;23.316;2023-03-13T06:40:59;94913.34;;;1.82;63.55
35778;BME280;21899;42.662;23.316;2023-03-13T06:43:25;94904.59;;;1.90;63.32
35778;BME280;21899;42.662;23.316;2023-03-13T06:45:50;94920.31;;;2.24;62.63
35778;BME280;21899;42.662;23.316;2023-03-13T06:48:16;94915.16;;;2.28;61.01
35778;BME280;21899;42.662;23.316;2023-03-13T06:50:42;94916.84;;;2.32;60.59
35778;BME280;21899;42.662;23.316;2023-03-13T06:53:14;94926.09;;;2.47;60.47
35778;BME280;21899;42.662;23.316;2023-03-13T06:55:40;94928.88;;;2.50;60.15
35778;BME280;21899;42.662;23.316;2023-03-13T06:58:05;94927.94;;;2.46;59.21
35778;BME280;21899;42.662;23.316;2023-03-13T07:00:31;94923.63;;;2.42;59.98
35778;BME280;21899;42.662;23.316;2023-03-13T07:02:56;94919.78;;;2.60;59.16
35778;BME280;21899;42.662;23.316;2023-03-13T07:05:21;94907.22;;;2.57;59.31
35778;BME280;21899;42.662;23.316;2023-03-13T07:07:47;94917.16;;;2.60;58.63
35778;BME280;21899;42.662;23.316;2023-03-13T07:10:12;94893.56;;;2.55;58.74
35778;BME280;21899;42.662;23.316;2023-03-13T07:12:38;94924.50;;;2.75;58.59
35778;BME280;21899;42.662;23.316;2023-03-13T07:15:04;94910.47;;;2.62;58.09
35778;BME280;21899;42.662;23.316;2023-03-13T07:17:30;94921.88;;;2.75;57.90
35778;BME280;21899;42.662;23.316;2023-03-13T07:19:56;94921.75;;;2.72;57.23
35778;BME280;21899;42.662;23.316;2023-03-13T07:22:21;94917.41;;;2.67;57.40
35778;BME280;21899;42.662;23.316;2023-03-13T07:24:47;94904.41;;;2.62;57.60
35778;BME280;21899;42.662;23.316;2023-03-13T07:27:12;94909.03;;;2.65;57.81
35778;BME280;21899;42.662;23.316;2023-03-13T07:29:38;94906.84;;;2.67;57.99
35778;BME280;21899;42.662;23.316;2023-03-13T07:32:03;94910.13;;;2.85;56.86
35778;BME280;21899;42.662;23.316;2023-03-13T07:34:29;94913.44;;;2.82;56.99
35778;BME280;21899;42.662;23.316;2023-03-13T07:36:54;94910.13;;;2.85;56.83
35778;BME280;21899;42.662;23.316;2023-03-13T07:39:19;94916.41;;;2.80;56.16
35778;BME280;21899;42.662;23.316;2023-03-13T07:41:45;94907.13;;;2.74;56.74
35778;BME280;21899;42.662;23.316;2023-03-13T07:44:10;94906.22;;;2.91;56.14
35778;BME280;21899;42.662;23.316;2023-03-13T07:46:36;94910.28;;;3.09;55.65
35778;BME280;21899;42.662;23.316;2023-03-13T07:49:01;94920.06;;;3.29;55.55
35778;BME280;21899;42.662;23.316;2023-03-13T07:51:26;94912.84;;;3.50;55.07
35778;BME280;21899;42.662;23.316;2023-03-13T07:53:52;94914.88;;;3.65;55.35
35778;BME280;21899;42.662;23.316;2023-03-13T07:56:22;94910.00;;;3.55;54.46
35778;BME280;21899;42.662;23.316;2023-03-13T07:58:48;94901.19;;;3.63;54.83
35778;BME280;21899;42.662;23.316;2023-03-13T08:01:20;94899.75;;;3.65;54.40
35778;BME280;21899;42.662;23.316;2023-03-13T08:03:46;94905.44;;;3.88;54.24
35778;BME280;21899;42.662;23.316;2023-03-13T08:06:16;94896.41;;;4.01;53.79
35778;BME280;21899;42.662;23.316;2023-03-13T08:08:42;94893.31;;;4.11;53.39
35778;BME280;21899;42.662;23.316;2023-03-13T08:11:10;94885.25;;;4.08;53.37
35778;BME280;21899;42.662;23.316;2023-03-13T08:13:36;94899.72;;;4.34;52.93
35778;BME280;21899;42.662;23.316;2023-03-13T08:16:13;94886.03;;;4.32;52.68
35778;BME280;21899;42.662;23.316;2023-03-13T08:18:44;94900.81;;;4.33;53.28
35778;BME280;21899;42.662;23.316;2023-03-13T08:21:15;94895.75;;;4.52;52.62
35778;BME280;21899;42.662;23.316;2023-03-13T08:23:41;94877.75;;;4.58;52.57
35778;BME280;21899;42.662;23.316;2023-03-13T08:26:07;94889.00;;;4.94;52.11
35778;BME280;21899;42.662;23.316;2023-03-13T08:28:34;94883.78;;;5.10;51.31
35778;BME280;21899;42.662;23.316;2023-03-13T08:31:33;94901.72;;;5.01;50.91
35778;BME280;21899;42.662;23.316;2023-03-13T08:33:58;94904.81;;;5.03;51.99
35778;BME280;21899;42.662;23.316;2023-03-13T08:36:28;94907.56;;;5.06;51.17
35778;BME280;21899;42.662;23.316;2023-03-13T08:38:56;94898.13;;;4.81;51.54
35778;BME280;21899;42.662;23.316;2023-03-13T08:41:24;94910.25;;;4.94;51.12
35778;BME280;21899;42.662;23.316;2023-03-13T08:43:53;94908.94;;;4.88;51.70
35778;BME280;21899;42.662;23.316;2023-03-13T08:46:19;94914.47;;;4.83;51.50
35778;BME280;21899;42.662;23.316;2023-03-13T08:48:50;94911.81;;;4.83;51.76
35778;BME280;21899;42.662;23.316;2023-03-13T08:51:16;94906.25;;;5.00;51.06
35778;BME280;21899;42.662;23.316;2023-03-13T08:53:42;94902.16;;;5.03;50.85
35778;BME280;21899;42.662;23.316;2023-03-13T08:56:11;94895.44;;;4.93;50.63
35778;BME280;21899;42.662;23.316;2023-03-13T08:58:37;94895.69;;;4.88;51.07
35778;BME280;21899;42.662;23.316;2023-03-13T09:01:04;94902.03;;;4.99;50.90
35778;BME280;21899;42.662;23.316;2023-03-13T09:03:30;94900.88;;;5.24;50.58
35778;BME280;21899;42.662;23.316;2023-03-13T09:05:57;94885.34;;;5.54;49.96
35778;BME280;21899;42.662;23.316;2023-03-13T09:08:23;94892.66;;;5.85;48.74
35778;BME280;21899;42.662;23.316;2023-03-13T09:10:54;94883.66;;;5.89;48.37
35778;BME280;21899;42.662;23.316;2023-03-13T09:13:19;94884.56;;;5.81;48.31
35778;BME280;21899;42.662;23.316;2023-03-13T09:15:45;94899.72;;;5.65;48.97
35778;BME280;21899;42.662;23.316;2023-03-13T09:18:17;94895.97;;;5.54;48.57
35778;BME280;21899;42.662;23.316;2023-03-13T09:20:43;94883.03;;;5.53;48.89
35778;BME280;21899;42.662;23.316;2023-03-13T09:23:09;94877.50;;;5.58;48.25
35778;BME280;21899;42.662;23.316;2023-03-13T09:25:37;94886.94;;;5.71;48.31
35778;BME280;21899;42.662;23.316;2023-03-13T09:28:02;94866.28;;;5.64;49.15
35778;BME280;21899;42.662;23.316;2023-03-13T09:30:27;94888.66;;;5.79;49.21
35778;BME280;21899;42.662;23.316;2023-03-13T09:32:53;94891.53;;;5.86;48.14
35778;BME280;21899;42.662;23.316;2023-03-13T09:35:18;94896.78;;;5.98;48.26
35778;BME280;21899;42.662;23.316;2023-03-13T09:37:43;94886.31;;;6.20;48.01
35778;BME280;21899;42.662;23.316;2023-03-13T09:40:16;94881.69;;;6.33;47.08
35778;BME280;21899;42.662;23.316;2023-03-13T09:45:30;94888.13;;;6.16;47.58
35778;BME280;21899;42.662;23.316;2023-03-13T09:50:39;94880.56;;;6.18;47.18
35778;BME280;21899;42.662;23.316;2023-03-13T09:53:14;94871.97;;;6.40;47.29
35778;BME280;21899;42.662;23.316;2023-03-13T09:55:44;94871.28;;;6.78;46.49
35778;BME280;21899;42.662;23.316;2023-03-13T09:58:20;94875.06;;;6.77;45.91
35778;BME280;21899;42.662;23.316;2023-03-13T10:00:53;94873.72;;;6.68;45.76
35778;BME280;21899;42.662;23.316;2023-03-13T10:03:20;94880.50;;;6.49;46.41
35778;BME280;21899;42.662;23.316;2023-03-13T10:06:20;94875.44;;;6.60;46.53
35778;BME280;21899;42.662;23.316;2023-03-13T10:08:46;94860.47;;;6.71;46.11
35778;BME280;21899;42.662;23.316;2023-03-13T10:13:59;94864.72;;;6.91;45.79
35778;BME280;21899;42.662;23.316;2023-03-13T10:16:48;94855.34;;;6.97;45.36
35778;BME280;21899;42.662;23.316;2023-03-13T10:19:18;94848.81;;;6.95;45.76
35778;BME280;21899;42.662;23.316;2023-03-13T10:21:51;94839.38;;;6.97;45.30
35778;BME280;21899;42.662;23.316;2023-03-13T10:24:37;94831.13;;;7.02;45.64
35778;BME280;21899;42.662;23.316;2023-03-13T10:27:04;94830.13;;;7.10;45.42
35778;BME280;21899;42.662;23.316;2023-03-13T10:29:30;94831.38;;;7.35;45.14
35778;BME280;21899;42.662;23.316;2023-03-13T10:32:04;94832.78;;;7.71;44.95
35778;BME280;21899;42.662;23.316;2023-03-13T10:37:20;94822.69;;;8.29;43.45
35778;BME280;21899;42.662;23.316;2023-03-13T10:39:46;94818.13;;;8.55;42.98
35778;BME280;21899;42.662;23.316;2023-03-13T10:42:26;94812.34;;;8.79;42.22
35778;BME280;21899;42.662;23.316;2023-03-13T10:44:58;94805.69;;;8.96;41.78
35778;BME280;21899;42.662;23.316;2023-03-13T10:47:24;94800.31;;;9.22;42.07
35778;BME280;21899;42.662;23.316;2023-03-13T10:49:54;94786.25;;;9.29;40.87
35778;BME280;21899;42.662;23.316;2023-03-13T10:52:33;94793.38;;;9.17;39.83
35778;BME280;21899;42.662;23.316;2023-03-13T10:55:03;94789.34;;;9.01;40.97
35778;BME280;21899;42.662;23.316;2023-03-13T10:57:34;94794.25;;;8.95;40.66
35778;BME280;21899;42.662;23.316;2023-03-13T11:00:04;94787.66;;;8.86;41.20
35778;BME280;21899;42.662;23.316;2023-03-13T11:02:47;94774.97;;;8.79;41.04
35778;BME280;21899;42.662;23.316;2023-03-13T11:07:51;94771.72;;;9.26;41.02
35778;BME280;21899;42.662;23.316;2023-03-13T11:10:19;94770.41;;;9.46;41.15
35778;BME280;21899;42.662;23.316;2023-03-13T11:12:46;94762.97;;;9.69;40.52
35778;BME280;21899;42.662;23.316;2023-03-13T11:15:15;94757.75;;;9.83;39.87
35778;BME280;21899;42.662;23.316;2023-03-13T11:17:41;94761.31;;;9.98;39.55
35778;BME280;21899;42.662;23.316;2023-03-13T11:20:21;94758.16;;;9.89;38.97
35778;BME280;21899;42.662;23.316;2023-03-13T11:23:08;94754.09;;;9.58;39.35
35778;BME280;21899;42.662;23.316;2023-03-13T11:25:42;94758.56;;;9.47;39.90
35778;BME280;21899;42.662;23.316;2023-03-13T11:28:24;94757.34;;;9.38;39.49
35778;BME280;21899;42.662;23.316;2023-03-13T11:36:31;94736.47;;;9.54;40.22
35778;BME280;21899;42.662;23.316;2023-03-13T11:44:30;94732.25;;;9.49;40.10
35778;BME280;21899;42.662;23.316;2023-03-13T11:47:34;94725.03;;;9.53;40.14
35778;BME280;21899;42.662;23.316;2023-03-13T12:00:57;94700.06;;;10.36;39.14
35778;BME280;21899;42.662;23.316;2023-03-13T12:03:36;94698.84;;;10.23;38.75
35778;BME280;21899;42.662;23.316;2023-03-13T12:06:06;94685.41;;;10.09;38.95
35778;BME280;21899;42.662;23.316;2023-03-13T12:08:45;94665.44;;;10.00;39.08
35778;BME280;21899;42.662;23.316;2023-03-13T12:13:41;94681.47;;;9.96;39.12
35778;BME280;21899;42.662;23.316;2023-03-13T12:16:13;94671.50;;;9.93;38.98
35778;BME280;21899;42.662;23.316;2023-03-13T12:18:41;94662.69;;;9.89;39.04
35778;BME280;21899;42.662;23.316;2023-03-13T12:27:10;94667.06;;;10.08;39.14
35778;BME280;21899;42.662;23.316;2023-03-13T12:29:52;94657.53;;;10.17;39.28
35778;BME280;21899;42.662;23.316;2023-03-13T12:32:33;94665.28;;;10.40;39.23
35778;BME280;21899;42.662;23.316;2023-03-13T12:35:07;94656.50;;;10.43;38.45
35778;BME280;21899;42.662;23.316;2023-03-13T12:40:20;94665.00;;;10.63;38.19
35778;BME280;21899;42.662;23.316;2023-03-13T12:42:56;94653.19;;;10.74;37.98
35778;BME280;21899;42.662;23.316;2023-03-13T12:45:24;94657.38;;;10.72;37.84
35778;BME280;21899;42.662;23.316;2023-03-13T12:53:17;94656.16;;;10.51;37.87
35778;BME280;21899;42.662;23.316;2023-03-13T12:56:23;94664.53;;;10.36;38.50
35778;BME280;21899;42.662;23.316;2023-03-13T13:01:47;94646.50;;;10.22;38.49
35778;BME280;21899;42.662;23.316;2023-03-13T13:04:21;94653.34;;;10.23;38.06
35778;BME280;21899;42.662;23.316;2023-03-13T13:07:05;94662.53;;;10.22;38.12
35778;BME280;21899;42.662;23.316;2023-03-13T13:12:22;94667.13;;;10.25;38.28
35778;BME280;21899;42.662;23.316;2023-03-13T13:22:50;94669.38;;;10.16;38.24
35778;BME280;21899;42.662;23.316;2023-03-13T13:30:30;94656.38;;;10.11;38.27
35778;BME280;21899;42.662;23.316;2023-03-13T13:38:45;94638.84;;;10.21;38.12
35778;BME280;21899;42.662;23.316;2023-03-13T13:43:45;94632.06;;;10.48;37.26
35778;BME280;21899;42.662;23.316;2023-03-13T13:46:30;94637.41;;;10.48;37.68
35778;BME280;21899;42.662;23.316;2023-03-13T13:51:37;94635.97;;;10.75;37.33
35778;BME280;21899;42.662;23.316;2023-03-13T13:54:29;94636.38;;;10.81;36.64
35778;BME280;21899;42.662;23.316;2023-03-13T13:56:57;94623.38;;;10.79;37.49
35778;BME280;21899;42.662;23.316;2023-03-13T13:59:41;94619.59;;;11.01;37.32
35778;BME280;21899;42.662;23.316;2023-03-13T14:07:27;94626.88;;;11.29;37.20
35778;BME280;21899;42.662;23.316;2023-03-13T14:09:59;94629.56;;;11.43;36.78
35778;BME280;21899;42.662;23.316;2023-03-13T14:12:36;94623.81;;;11.37;36.32
35778;BME280;21899;42.662;23.316;2023-03-13T14:15:18;94624.19;;;11.36;35.50
35778;BME280;21899;42.662;23.316;2023-03-13T14:17:49;94620.00;;;11.31;35.66
35778;BME280;21899;42.662;23.316;2023-03-13T14:22:46;94614.25;;;11.12;35.99
35778;BME280;21899;42.662;23.316;2023-03-13T14:25:12;94615.78;;;11.13;36.26
35778;BME280;21899;42.662;23.316;2023-03-13T14:27:42;94613.84;;;11.06;36.51
35778;BME280;21899;42.662;23.316;2023-03-13T14:30:09;94618.44;;;11.06;36.24
35778;BME280;21899;42.662;23.316;2023-03-13T14:32:36;94612.31;;;11.02;35.44
35778;BME280;21899;42.662;23.316;2023-03-13T14:35:03;94613.47;;;10.94;36.23
35778;BME280;21899;42.662;23.316;2023-03-13T14:37:35;94618.06;;;10.97;36.11
35778;BME280;21899;42.662;23.316;2023-03-13T14:40:08;94614.56;;;10.79;36.43
35778;BME280;21899;42.662;23.316;2023-03-13T14:42:42;94613.81;;;10.82;36.33
35778;BME280;21899;42.662;23.316;2023-03-13T14:45:39;94616.88;;;10.80;36.47
35778;BME280;21899;42.662;23.316;2023-03-13T14:50:43;94613.06;;;10.92;36.27